createdAt,value
2022-08-17T00:02:25.946Z,1.00
2022-08-17T00:04:54.161Z,1.00
2022-08-17T00:07:21.263Z,1.00
2022-08-17T00:09:48.098Z,1.00
2022-08-17T00:12:43.284Z,1.00
2022-08-17T00:15:01.573Z,1.00
2022-08-17T00:17:28.437Z,1.00
2022-08-17T00:19:55.084Z,1.00
2022-08-17T00:22:31.670Z,1.00
2022-08-17T00:25:02.830Z,1.00
2022-08-17T00:27:29.474Z,1.00
2022-08-17T00:29:56.279Z,1.00
2022-08-17T00:33:14.032Z,1.00
2022-08-17T00:35:12.829Z,1.00
2022-08-17T00:37:39.705Z,1.00
2022-08-17T00:40:09.942Z,1.00
2022-08-17T00:42:37.175Z,1.00
2022-08-17T00:45:06.058Z,1.00
2022-08-17T00:47:32.941Z,1.00
2022-08-17T00:49:59.592Z,1.00
2022-08-17T00:52:32.714Z,1.00
2022-08-17T00:54:59.796Z,1.00
2022-08-17T00:57:33.375Z,1.00
2022-08-17T01:00:06.393Z,1.00
2022-08-17T01:02:42.222Z,1.00
2022-08-17T01:05:19.845Z,1.00
2022-08-17T01:07:48.374Z,1.00
2022-08-17T01:11:00.253Z,1.00
2022-08-17T01:13:03.487Z,1.00
2022-08-17T01:15:31.839Z,1.00
2022-08-17T01:17:58.516Z,1.00
2022-08-17T01:20:25.202Z,1.00
2022-08-17T01:22:52.400Z,1.00
2022-08-17T01:25:20.279Z,1.00
2022-08-17T01:27:47.815Z,1.00
2022-08-17T01:30:57.188Z,1.00
2022-08-17T01:33:01.747Z,1.00
2022-08-17T01:35:28.498Z,1.00
2022-08-17T01:37:55.204Z,1.00
2022-08-17T01:40:25.645Z,1.00
2022-08-17T01:42:57.920Z,1.00
2022-08-17T01:45:28.195Z,1.00
2022-08-17T01:47:55.510Z,1.00
2022-08-17T01:50:31.219Z,1.00
2022-08-17T01:53:02.298Z,1.00
2022-08-17T01:55:53.721Z,1.00
2022-08-17T01:58:21.112Z,1.00
2022-08-17T02:01:00.085Z,1.00
2022-08-17T02:03:28.710Z,1.00
2022-08-17T02:05:55.659Z,1.00
2022-08-17T02:08:39.060Z,1.00
2022-08-17T02:11:14.594Z,1.00
2022-08-17T02:13:42.063Z,1.00
2022-08-17T02:16:08.752Z,1.00
2022-08-17T02:18:35.435Z,10.90
2022-08-17T02:21:02.533Z,14.50
2022-08-17T02:23:31.223Z,37.60
2022-08-17T02:25:59.791Z,48.60
2022-08-17T02:28:28.342Z,50.20
2022-08-17T02:31:01.817Z,62.00
2022-08-17T02:33:42.009Z,61.50
2022-08-17T02:36:11.878Z,91.90
2022-08-17T02:38:39.755Z,76.40
2022-08-17T02:41:07.081Z,91.30
2022-08-17T02:43:34.418Z,99.90
2022-08-17T02:46:01.197Z,99.90
2022-08-17T02:48:31.172Z,99.90
2022-08-17T02:50:58.948Z,99.90
2022-08-17T02:53:25.915Z,99.90
2022-08-17T02:55:52.951Z,99.90
2022-08-17T02:58:35.441Z,99.90
2022-08-17T03:01:06.998Z,99.90
2022-08-17T03:03:34.735Z,99.90
2022-08-17T03:06:01.731Z,99.90
2022-08-17T03:08:28.840Z,99.90
2022-08-17T03:10:56.288Z,99.90
2022-08-17T03:13:23.270Z,99.90
2022-08-17T03:15:50.719Z,99.90
2022-08-17T03:18:25.417Z,99.90
2022-08-17T03:21:00.670Z,99.90
2022-08-17T03:23:29.686Z,99.90
2022-08-17T03:25:58.024Z,99.90
2022-08-17T03:28:25.756Z,99.90
2022-08-17T03:30:52.460Z,99.90
2022-08-17T03:33:21.004Z,99.90
2022-08-17T03:35:48.502Z,99.90
2022-08-17T03:38:17.082Z,99.90
2022-08-17T03:40:58.410Z,99.90
2022-08-17T03:43:27.770Z,99.90
2022-08-17T03:46:33.971Z,99.90
2022-08-17T03:49:19.333Z,99.90
2022-08-17T03:52:15.343Z,99.90
2022-08-17T03:55:01.875Z,99.90
2022-08-17T03:57:29.138Z,99.90
2022-08-17T03:59:56.017Z,99.90
2022-08-17T04:02:28.965Z,99.90
2022-08-17T04:04:56.122Z,99.90
2022-08-17T04:07:25.091Z,99.90
2022-08-17T04:09:52.012Z,99.90
2022-08-17T04:12:21.813Z,99.90
2022-08-17T04:14:53.482Z,99.90
2022-08-17T04:17:22.448Z,99.90
2022-08-17T04:19:49.103Z,99.90
2022-08-17T04:22:33.179Z,99.90
2022-08-17T04:25:03.515Z,99.90
2022-08-17T04:27:30.203Z,99.90
2022-08-17T04:29:56.959Z,99.90
2022-08-17T04:32:58.377Z,99.90
2022-08-17T04:35:10.541Z,99.90
2022-08-17T04:37:38.048Z,1.00
2022-08-17T04:40:27.349Z,1.00
2022-08-17T04:43:13.933Z,1.00
2022-08-17T04:45:55.611Z,1.00
2022-08-17T04:48:36.467Z,1.00
2022-08-17T04:51:13.524Z,1.00
2022-08-17T04:53:42.382Z,1.00
2022-08-17T04:56:11.784Z,1.00
2022-08-17T04:58:44.739Z,1.00
2022-08-17T05:01:11.667Z,1.00
2022-08-17T05:03:38.656Z,1.00
2022-08-17T05:06:05.931Z,1.00
2022-08-17T05:08:32.663Z,1.00
2022-08-17T05:11:00.327Z,1.00
2022-08-17T05:13:29.631Z,1.00
2022-08-17T05:15:59.633Z,1.00
2022-08-17T05:18:27.527Z,1.00
2022-08-17T05:20:54.635Z,1.00
2022-08-17T05:23:23.165Z,1.00
2022-08-17T05:25:52.989Z,1.00
2022-08-17T05:28:24.048Z,1.00
2022-08-17T05:30:54.647Z,1.00
2022-08-17T05:33:23.893Z,1.00
2022-08-17T05:35:53.255Z,1.00
2022-08-17T05:38:22.618Z,1.00
2022-08-17T05:40:49.632Z,1.00
2022-08-17T05:43:22.292Z,1.00
2022-08-17T05:46:16.684Z,1.00
2022-08-17T05:48:46.192Z,1.00
2022-08-17T05:51:34.646Z,1.00
2022-08-17T05:54:15.755Z,1.00
2022-08-17T05:56:52.023Z,1.00
2022-08-17T05:59:53.199Z,1.00
2022-08-17T06:02:37.822Z,1.00
2022-08-17T06:05:04.440Z,1.00
2022-08-17T06:07:31.040Z,1.00
2022-08-17T06:10:12.212Z,1.00
2022-08-17T06:13:01.328Z,1.00
2022-08-17T06:15:40.230Z,1.00
2022-08-17T06:18:09.105Z,1.00
2022-08-17T06:20:51.979Z,1.00
2022-08-17T06:23:39.456Z,1.00
2022-08-17T06:26:18.112Z,1.00
2022-08-17T06:28:52.222Z,1.00
2022-08-17T06:31:28.081Z,1.00
2022-08-17T06:33:56.852Z,48.20
2022-08-17T06:36:40.329Z,98.20
2022-08-17T06:39:46.105Z,99.90
2022-08-17T06:42:54.687Z,99.90
2022-08-17T06:45:27.600Z,17.60
2022-08-17T06:48:05.854Z,1.00
2022-08-17T06:50:48.207Z,1.00
2022-08-17T06:53:20.429Z,1.00
2022-08-17T06:56:07.197Z,1.00
2022-08-17T06:58:35.646Z,1.00
2022-08-17T07:01:10.144Z,1.00
2022-08-17T07:03:54.576Z,1.00
2022-08-17T07:06:27.992Z,1.00
2022-08-17T07:09:03.412Z,1.00
2022-08-17T07:11:51.268Z,1.00
2022-08-17T07:14:41.005Z,1.00
2022-08-17T07:17:14.006Z,1.00
2022-08-17T07:19:44.113Z,1.00
2022-08-17T07:22:16.509Z,1.00
2022-08-17T07:24:57.275Z,1.00
2022-08-17T07:27:45.263Z,1.00
2022-08-17T07:30:11.964Z,99.90
2022-08-17T07:32:46.286Z,1.00
2022-08-17T07:35:18.372Z,1.00
2022-08-17T07:37:56.069Z,99.90
2022-08-17T07:40:27.140Z,1.00
2022-08-17T07:43:05.092Z,99.90
2022-08-17T07:45:51.323Z,99.90
2022-08-17T07:48:21.922Z,99.90
2022-08-17T07:50:50.450Z,99.90
2022-08-17T07:53:19.446Z,99.90
2022-08-17T07:55:46.400Z,99.90
2022-08-17T07:58:19.376Z,99.90
2022-08-17T08:00:46.688Z,99.90
2022-08-17T08:03:16.588Z,99.90
2022-08-17T08:05:54.809Z,99.90
2022-08-17T08:08:56.847Z,99.90
2022-08-17T08:11:35.571Z,99.90
2022-08-17T08:14:28.629Z,99.90
2022-08-17T08:17:07.286Z,51.00
2022-08-17T08:19:36.277Z,25.00
2022-08-17T08:22:06.800Z,12.00
2022-08-17T08:25:00.970Z,26.80
2022-08-17T08:27:49.792Z,1.00
2022-08-17T08:30:21.228Z,1.00
2022-08-17T08:33:00.207Z,1.00
2022-08-17T08:35:38.066Z,1.00
2022-08-17T08:38:34.565Z,1.00
2022-08-17T08:41:14.297Z,1.00
2022-08-17T08:44:06.017Z,1.00
2022-08-17T08:46:51.237Z,1.00
2022-08-17T08:50:02.110Z,1.00
2022-08-17T08:52:45.221Z,1.00
2022-08-17T08:55:23.020Z,1.00
2022-08-17T08:58:03.875Z,1.00
2022-08-17T09:00:36.975Z,1.00
2022-08-17T09:03:51.236Z,1.00
2022-08-17T09:06:45.191Z,1.00
2022-08-17T09:09:35.750Z,1.00
2022-08-17T09:12:25.625Z,1.00
2022-08-17T09:15:20.070Z,1.00
2022-08-17T09:18:08.570Z,1.00
2022-08-17T09:20:51.420Z,1.00
2022-08-17T09:23:32.537Z,1.00
2022-08-17T09:26:06.835Z,1.00
2022-08-17T09:28:37.117Z,1.00
2022-08-17T09:31:09.756Z,1.00
2022-08-17T09:33:42.484Z,1.00
2022-08-17T09:36:16.436Z,1.00
2022-08-17T09:39:13.127Z,1.00
2022-08-17T09:41:54.161Z,1.00
2022-08-17T09:44:51.776Z,1.00
2022-08-17T09:47:30.614Z,1.00
2022-08-17T09:51:04.140Z,1.00
2022-08-17T09:53:22.974Z,1.00
2022-08-17T09:56:28.665Z,1.00
2022-08-17T09:59:04.218Z,1.00
2022-08-17T10:01:40.242Z,1.00
2022-08-17T10:04:52.836Z,1.00
2022-08-17T10:07:46.558Z,1.00
2022-08-17T10:10:21.787Z,43.90
2022-08-17T10:13:05.603Z,91.90
2022-08-17T10:15:46.790Z,1.00
2022-08-17T10:18:31.949Z,33.70
2022-08-17T10:21:38.022Z,59.30
2022-08-17T10:25:02.011Z,99.90
2022-08-17T10:27:47.418Z,99.90
2022-08-17T10:30:17.391Z,99.90
2022-08-17T10:32:49.060Z,99.90
2022-08-17T10:35:42.946Z,1.00
2022-08-17T10:38:46.046Z,1.00
2022-08-17T10:41:50.985Z,56.30
2022-08-17T10:44:38.494Z,99.90
2022-08-17T10:47:07.628Z,99.90
2022-08-17T10:49:47.823Z,99.90
2022-08-17T10:52:21.742Z,1.00
2022-08-17T10:55:06.284Z,99.90
2022-08-17T10:57:39.518Z,99.90
2022-08-17T11:00:17.224Z,1.00
2022-08-17T11:02:50.431Z,99.90
2022-08-17T11:05:55.866Z,99.90
2022-08-17T11:09:00.753Z,99.90
2022-08-17T11:11:39.409Z,99.90
2022-08-17T11:14:23.810Z,1.00
2022-08-17T11:17:08.271Z,1.00
2022-08-17T11:19:52.756Z,1.00
2022-08-17T11:22:50.486Z,1.00
2022-08-17T11:25:19.575Z,1.00
2022-08-17T11:27:53.738Z,1.00
2022-08-17T11:30:44.523Z,1.00
2022-08-17T11:33:33.010Z,1.00
2022-08-17T11:36:33.613Z,1.00
2022-08-17T11:39:37.721Z,1.00
2022-08-17T11:42:27.957Z,1.00
2022-08-17T11:45:31.760Z,1.00
2022-08-17T11:48:44.382Z,1.00
2022-08-17T11:51:36.217Z,57.00
2022-08-17T11:54:33.626Z,1.00
2022-08-17T11:57:27.155Z,25.60
2022-08-17T11:59:58.952Z,99.90
2022-08-17T12:02:31.604Z,1.00
2022-08-17T12:05:17.274Z,1.00
2022-08-17T12:07:51.984Z,99.90
2022-08-17T12:10:21.931Z,99.90
2022-08-17T12:12:50.277Z,92.60
2022-08-17T12:15:21.209Z,99.90
2022-08-17T12:17:53.749Z,36.90
2022-08-17T12:20:30.451Z,99.90
2022-08-17T12:23:00.775Z,98.70
2022-08-17T12:25:44.366Z,69.40
2022-08-17T12:28:32.117Z,99.90
2022-08-17T12:31:20.822Z,1.00
2022-08-17T12:33:49.897Z,23.60
2022-08-17T12:36:25.277Z,1.00
2022-08-17T12:39:13.054Z,1.00
2022-08-17T12:41:44.357Z,99.90
2022-08-17T12:44:24.684Z,99.90
2022-08-17T12:47:21.920Z,99.90
2022-08-17T12:49:54.304Z,99.90
2022-08-17T12:52:26.903Z,99.90
2022-08-17T12:55:00.618Z,1.00
2022-08-17T12:57:45.462Z,1.00
2022-08-17T13:00:17.813Z,99.90
2022-08-17T13:02:51.074Z,99.90
2022-08-17T13:05:25.169Z,99.90
2022-08-17T13:07:53.316Z,99.90
2022-08-17T13:10:30.045Z,1.00
2022-08-17T13:13:03.714Z,1.00
2022-08-17T13:15:36.937Z,99.90
2022-08-17T13:18:27.437Z,99.90
2022-08-17T13:20:55.087Z,99.90
2022-08-17T13:23:21.843Z,99.90
2022-08-17T13:26:06.458Z,1.00
2022-08-17T13:28:35.955Z,1.00
2022-08-17T13:31:27.846Z,86.60
2022-08-17T13:34:18.486Z,99.90
2022-08-17T13:36:46.372Z,1.00
2022-08-17T13:39:25.078Z,1.00
2022-08-17T13:41:55.363Z,99.90
2022-08-17T13:44:40.372Z,99.90
2022-08-17T13:47:33.231Z,1.00
2022-08-17T13:49:59.935Z,1.00
2022-08-17T13:52:40.923Z,1.00
2022-08-17T13:55:20.152Z,99.90
2022-08-17T13:57:49.263Z,99.90
2022-08-17T14:00:36.383Z,99.90
2022-08-17T14:03:04.596Z,99.90
2022-08-17T14:05:32.042Z,99.90
2022-08-17T14:08:02.018Z,99.90
2022-08-17T14:10:35.775Z,1.00
2022-08-17T14:13:02.748Z,1.00
2022-08-17T14:15:56.153Z,1.00
2022-08-17T14:18:18.922Z,1.00
2022-08-17T14:21:05.739Z,99.90
2022-08-17T14:23:32.928Z,99.90
2022-08-17T14:25:59.809Z,99.90
2022-08-17T14:28:27.843Z,99.90
2022-08-17T14:30:55.325Z,1.00
2022-08-17T14:33:22.565Z,3.00
2022-08-17T14:35:53.558Z,1.00
2022-08-17T14:38:20.910Z,1.00
2022-08-17T14:40:48.199Z,1.00
2022-08-17T14:43:15.918Z,1.00
2022-08-17T14:45:43.207Z,1.00
2022-08-17T14:48:10.064Z,1.00
2022-08-17T14:50:40.594Z,1.00
2022-08-17T14:53:09.350Z,1.00
2022-08-17T14:55:39.829Z,1.00
2022-08-17T14:58:07.433Z,1.00
2022-08-17T15:00:34.538Z,1.00
2022-08-17T15:03:01.985Z,1.00
2022-08-17T15:05:33.616Z,1.00
2022-08-17T15:08:01.397Z,1.00
2022-08-17T15:10:29.341Z,1.00
2022-08-17T15:12:56.585Z,1.00
2022-08-17T15:15:23.821Z,1.00
2022-08-17T15:17:51.369Z,1.00
2022-08-17T15:20:20.789Z,1.00
2022-08-17T15:22:55.343Z,1.00
2022-08-17T15:25:22.914Z,1.00
2022-08-17T15:27:49.705Z,1.00
2022-08-17T15:30:16.862Z,1.00
2022-08-17T15:32:45.855Z,1.00
2022-08-17T15:35:18.929Z,1.00
2022-08-17T15:37:53.859Z,1.00
2022-08-17T15:40:20.622Z,1.00
2022-08-17T15:42:47.299Z,1.00
2022-08-17T15:45:14.600Z,1.00
2022-08-17T15:47:42.559Z,1.00
2022-08-17T15:50:10.264Z,1.00
2022-08-17T15:52:40.176Z,99.90
2022-08-17T15:55:10.683Z,99.90
2022-08-17T15:57:37.494Z,1.00
2022-08-17T16:00:06.160Z,99.90
2022-08-17T16:03:16.068Z,99.90
2022-08-17T16:05:24.861Z,99.90
2022-08-17T16:07:52.581Z,99.90
2022-08-17T16:10:19.885Z,99.90
2022-08-17T16:12:49.576Z,99.90
2022-08-17T16:15:17.290Z,99.90
2022-08-17T16:17:43.960Z,99.90
2022-08-17T16:20:20.526Z,99.90
2022-08-17T16:22:49.234Z,99.90
2022-08-17T16:25:47.153Z,99.90
2022-08-17T16:28:16.069Z,99.90
2022-08-17T16:30:42.779Z,99.90
2022-08-17T16:33:11.445Z,99.90
2022-08-17T16:35:38.342Z,99.90
2022-08-17T16:38:05.121Z,99.90
2022-08-17T16:40:35.750Z,99.90
2022-08-17T16:43:03.349Z,99.90
2022-08-17T16:45:36.399Z,99.90
2022-08-17T16:48:03.628Z,99.90
2022-08-17T16:50:31.837Z,99.90
2022-08-17T16:53:10.737Z,99.90
2022-08-17T16:55:37.876Z,99.90
2022-08-17T16:58:05.318Z,99.90
2022-08-17T17:00:33.420Z,99.90
2022-08-17T17:03:20.252Z,99.90
2022-08-17T17:05:59.258Z,1.00
2022-08-17T17:08:28.446Z,1.00
2022-08-17T17:10:56.109Z,1.00
2022-08-17T17:13:44.459Z,1.00
2022-08-17T17:16:31.945Z,1.00
2022-08-17T17:19:15.245Z,1.00
2022-08-17T17:21:49.437Z,1.00
2022-08-17T17:24:28.908Z,1.00
2022-08-17T17:27:42.511Z,1.00
2022-08-17T17:30:38.161Z,1.00
2022-08-17T17:33:17.346Z,1.00
2022-08-17T17:36:04.699Z,1.00
2022-08-17T17:38:43.575Z,1.00
2022-08-17T17:41:26.055Z,1.00
2022-08-17T17:44:01.861Z,1.00
2022-08-17T17:46:41.960Z,1.00
2022-08-17T17:49:14.227Z,1.00
2022-08-17T17:52:08.094Z,1.00
2022-08-17T17:54:58.937Z,1.00
2022-08-17T17:57:31.281Z,1.00
2022-08-17T18:00:21.960Z,1.00
2022-08-17T18:03:38.649Z,1.00
2022-08-17T18:06:45.555Z,1.00
2022-08-17T18:09:27.195Z,1.00
2022-08-17T18:12:42.755Z,1.00
2022-08-17T18:15:37.365Z,1.00
2022-08-17T18:18:37.462Z,1.00
2022-08-17T18:21:07.331Z,1.00
2022-08-17T18:23:34.585Z,1.00
2022-08-17T18:26:02.089Z,1.00
2022-08-17T18:28:35.775Z,1.00
2022-08-17T18:31:21.704Z,1.00
2022-08-17T18:33:54.635Z,1.00
2022-08-17T18:36:36.233Z,1.00
2022-08-17T18:39:16.365Z,1.00
2022-08-17T18:41:52.261Z,1.00
2022-08-17T18:44:32.619Z,1.00
2022-08-17T18:49:46.880Z,1.00
2022-08-17T18:52:30.382Z,1.00
2022-08-17T18:55:16.497Z,1.00
2022-08-17T18:57:59.945Z,1.00
2022-08-17T19:00:29.479Z,1.00
2022-08-17T19:03:01.214Z,1.00
2022-08-17T19:05:40.088Z,1.00
2022-08-17T19:08:28.333Z,1.00
2022-08-17T19:11:04.130Z,1.00
2022-08-17T19:13:53.608Z,1.00
2022-08-17T19:16:27.228Z,1.00
2022-08-17T19:19:09.912Z,1.00
2022-08-17T19:21:45.651Z,1.00
2022-08-17T19:24:19.616Z,1.00
2022-08-17T19:26:56.553Z,1.00
2022-08-17T19:29:56.985Z,1.00
2022-08-17T19:32:36.714Z,1.00
2022-08-17T19:35:05.679Z,1.00
2022-08-17T19:37:51.089Z,1.00
2022-08-17T19:40:51.182Z,1.00
2022-08-17T19:43:36.529Z,1.00
2022-08-17T19:46:27.615Z,1.00
2022-08-17T19:49:19.783Z,1.00
2022-08-17T19:51:50.279Z,1.00
2022-08-17T19:54:51.502Z,1.00
2022-08-17T19:57:41.527Z,1.00
2022-08-17T20:00:12.885Z,1.00
2022-08-17T20:03:16.436Z,3.40
2022-08-17T20:06:11.928Z,2.60
2022-08-17T20:08:40.499Z,19.50
2022-08-17T20:11:11.473Z,36.40
2022-08-17T20:13:52.442Z,29.40
2022-08-17T20:16:19.633Z,96.60
2022-08-17T20:19:23.497Z,82.90
2022-08-17T20:22:10.649Z,82.30
2022-08-17T20:24:46.636Z,99.90
2022-08-17T20:27:20.441Z,99.90
2022-08-17T20:33:03.852Z,99.90
2022-08-17T20:35:33.652Z,99.90
2022-08-17T20:41:01.011Z,99.90
2022-08-17T20:43:33.564Z,99.90
2022-08-17T20:46:28.233Z,99.90
2022-08-17T20:48:59.250Z,99.90
2022-08-17T20:51:31.828Z,99.90
2022-08-17T20:54:27.010Z,99.90
2022-08-17T20:56:57.196Z,99.90
2022-08-17T20:59:25.413Z,99.90
2022-08-17T21:02:18.829Z,99.90
2022-08-17T21:04:54.416Z,99.90
2022-08-17T21:07:43.252Z,99.90
2022-08-17T21:10:23.826Z,99.90
2022-08-17T21:12:56.304Z,99.90
2022-08-17T21:16:00.183Z,99.90
2022-08-17T21:18:59.290Z,99.90
2022-08-17T21:21:37.583Z,99.90
2022-08-17T21:24:30.438Z,99.90
2022-08-17T21:27:00.390Z,99.90
2022-08-17T21:29:31.546Z,99.90
2022-08-17T21:31:59.351Z,99.90
2022-08-17T21:35:05.708Z,99.90
2022-08-17T21:37:45.164Z,99.90
2022-08-17T21:40:18.423Z,99.90
2022-08-17T21:42:51.158Z,99.90
2022-08-17T21:45:30.195Z,99.90
2022-08-17T21:48:19.576Z,99.90
2022-08-17T21:51:00.956Z,99.90
2022-08-17T21:53:39.119Z,99.90
2022-08-17T21:56:07.300Z,99.90
2022-08-17T21:58:40.308Z,99.90
2022-08-17T22:01:13.352Z,99.90
2022-08-17T22:03:47.243Z,99.90
2022-08-17T22:06:24.527Z,99.90
2022-08-17T22:09:03.729Z,99.90
2022-08-17T22:11:31.493Z,1.00
2022-08-17T22:14:05.340Z,99.90
2022-08-17T22:16:32.870Z,1.00
2022-08-17T22:18:59.700Z,1.00
2022-08-17T22:21:26.497Z,99.90
2022-08-17T22:24:07.753Z,99.90
2022-08-17T22:27:01.084Z,1.00
2022-08-17T22:29:57.167Z,1.00
2022-08-17T22:32:31.994Z,1.00
2022-08-17T22:35:28.411Z,1.00
2022-08-17T22:37:56.544Z,1.00
2022-08-17T22:40:34.402Z,1.00
2022-08-17T22:43:03.604Z,1.00
2022-08-17T22:45:31.225Z,1.00
2022-08-17T22:47:59.067Z,1.00
2022-08-17T22:50:29.400Z,1.00
2022-08-17T22:53:41.899Z,1.00
2022-08-17T22:56:35.323Z,1.00
2022-08-17T22:59:22.537Z,1.00
2022-08-17T23:02:13.091Z,1.00
2022-08-17T23:04:43.257Z,1.00
2022-08-17T23:07:10.138Z,1.00
2022-08-17T23:09:37.431Z,1.00
2022-08-17T23:12:08.049Z,1.00
2022-08-17T23:14:39.273Z,1.00
2022-08-17T23:17:06.531Z,1.00
2022-08-17T23:19:33.539Z,1.00
2022-08-17T23:22:02.409Z,1.00
2022-08-17T23:24:31.821Z,1.00
2022-08-17T23:26:58.975Z,1.00
2022-08-17T23:29:28.831Z,1.00
2022-08-17T23:31:57.951Z,33.50
2022-08-17T23:34:25.580Z,1.00
2022-08-17T23:36:52.943Z,1.00
2022-08-17T23:39:24.411Z,51.20
2022-08-17T23:41:54.078Z,99.90
2022-08-17T23:44:23.455Z,99.90
2022-08-17T23:46:51.594Z,99.90
2022-08-17T23:49:19.124Z,99.90
2022-08-17T23:51:46.619Z,99.90
2022-08-17T23:54:34.850Z,99.90
2022-08-17T23:57:02.532Z,99.90
2022-08-17T23:59:29.273Z,99.90
